Time;durP1;ratioP1;P1;durP2;ratioP2;P2;SDS_P1;SDS_P2;PMS_P1;PMS_P2;Temp;Humidity;BMP_temperature;BMP_pressure;BME280_temperature;BME280_humidity;BME280_pressure;Samples;Min_cycle;Max_cycle;Signal;HPM_P1;HPM_P2
2021/03/11 00:00:41;;;;;;;8.75;4.80;;;9.60;52.90;;;;;;4952737;29;20062;-75
2021/03/11 00:03:07;;;;;;;12.02;5.15;;;9.60;53.10;;;;;;4952965;29;20434;-75
2021/03/11 00:05:34;;;;;;;12.68;5.43;;;9.70;52.80;;;;;;4952638;29;20035;-76
2021/03/11 00:08:00;;;;;;;10.88;5.15;;;9.60;53.00;;;;;;4955019;28;20046;-74
2021/03/11 00:10:25;;;;;;;9.50;4.85;;;9.70;53.30;;;;;;4952116;29;20047;-75
2021/03/11 00:12:51;;;;;;;11.05;4.40;;;9.70;54.10;;;;;;4956623;29;20040;-75
2021/03/11 00:15:20;;;;;;;8.90;3.63;;;9.70;54.70;;;;;;4950925;29;20561;-75
2021/03/11 00:17:46;;;;;;;7.30;3.85;;;9.70;55.40;;;;;;4937536;29;20035;-74
2021/03/11 00:20:14;;;;;;;7.35;3.70;;;9.60;56.10;;;;;;4937872;29;20050;-75
2021/03/11 00:22:41;;;;;;;8.05;3.88;;;9.60;55.50;;;;;;4938210;29;20042;-75
2021/03/11 00:25:12;;;;;;;6.03;3.33;;;9.60;55.40;;;;;;4937104;29;20485;-74
2021/03/11 00:27:39;;;;;;;5.68;3.50;;;9.60;55.20;;;;;;4942235;29;20086;-75
2021/03/11 00:30:07;;;;;;;7.43;3.58;;;9.70;55.20;;;;;;4956018;28;20047;-75
2021/03/11 00:32:33;;;;;;;8.32;3.60;;;9.60;55.50;;;;;;4955482;29;20102;-76
2021/03/11 00:34:58;;;;;;;7.55;3.53;;;9.60;55.60;;;;;;4955895;29;20047;-73
2021/03/11 00:37:24;;;;;;;6.60;3.20;;;9.60;55.10;;;;;;4957168;29;20047;-74
2021/03/11 00:39:50;;;;;;;8.82;3.30;;;9.70;55.10;;;;;;4955465;29;20110;-74
2021/03/11 00:42:15;;;;;;;6.88;3.13;;;9.60;55.50;;;;;;4950280;29;20039;-74
2021/03/11 00:44:41;;;;;;;8.02;3.47;;;9.70;54.40;;;;;;4955176;29;20491;-74
2021/03/11 00:47:07;;;;;;;5.70;3.20;;;9.70;54.70;;;;;;4956848;29;20039;-76
2021/03/11 00:49:34;;;;;;;7.70;3.08;;;9.70;55.10;;;;;;4957515;29;20043;-76
2021/03/11 00:52:01;;;;;;;9.15;3.28;;;9.70;55.00;;;;;;4955772;29;20042;-77
2021/03/11 00:54:27;;;;;;;7.10;3.60;;;9.70;55.00;;;;;;4965976;28;20035;-76
2021/03/11 00:56:53;;;;;;;7.07;3.47;;;9.70;54.70;;;;;;4936897;29;20370;-76
2021/03/11 00:59:19;;;;;;;7.78;3.17;;;9.70;54.90;;;;;;4942257;29;20070;-76
2021/03/11 01:01:44;;;;;;;6.22;3.28;;;9.60;55.00;;;;;;4952522;29;20050;-76
2021/03/11 01:04:11;;;;;;;8.02;3.30;;;9.60;54.70;;;;;;4956423;29;20039;-75
2021/03/11 01:06:37;;;;;;;6.68;3.25;;;9.70;54.80;;;;;;4955421;29;20039;-75
2021/03/11 01:09:04;;;;;;;5.15;2.80;;;9.70;54.70;;;;;;4956683;29;20039;-75
2021/03/11 01:11:29;;;;;;;6.07;3.22;;;9.70;54.90;;;;;;4938269;29;20048;-76
2021/03/11 01:13:55;;;;;;;5.53;2.85;;;9.70;54.80;;;;;;4937848;29;20461;-76
2021/03/11 01:16:21;;;;;;;7.32;3.25;;;9.70;54.50;;;;;;4919933;29;20032;-77
2021/03/11 01:18:47;;;;;;;6.63;2.85;;;9.70;54.90;;;;;;4920881;29;20039;-76
2021/03/11 01:21:12;;;;;;;7.22;3.00;;;9.70;54.70;;;;;;4937206;29;20055;-78
2021/03/11 01:23:38;;;;;;;5.95;3.35;;;9.70;54.70;;;;;;4921145;29;20038;-78
2021/03/11 01:26:04;;;;;;;5.30;2.67;;;9.70;54.40;;;;;;4937679;29;20035;-78
2021/03/11 01:28:29;;;;;;;6.28;3.25;;;9.80;54.40;;;;;;4920610;29;20504;-77
2021/03/11 01:30:55;;;;;;;7.93;2.78;;;9.70;54.40;;;;;;4936884;29;20533;-78
2021/03/11 01:33:21;;;;;;;8.73;2.80;;;9.70;54.30;;;;;;4937173;29;20385;-78
2021/03/11 01:35:47;;;;;;;5.35;2.63;;;9.70;54.10;;;;;;4920502;29;20183;-78
2021/03/11 01:38:13;;;;;;;5.82;2.22;;;9.80;54.40;;;;;;4937071;29;20046;-79
2021/03/11 01:40:38;;;;;;;4.47;2.45;;;9.80;54.70;;;;;;4920789;29;20468;-78
2021/03/11 01:43:04;;;;;;;4.95;2.47;;;9.70;54.70;;;;;;4920417;29;20429;-77
2021/03/11 01:45:30;;;;;;;4.55;2.45;;;9.80;55.00;;;;;;4920020;29;20134;-78
2021/03/11 01:47:56;;;;;;;4.78;2.28;;;9.70;54.80;;;;;;4936098;29;20036;-77
2021/03/11 01:50:22;;;;;;;3.80;2.20;;;9.70;54.90;;;;;;4919955;29;20420;-77
2021/03/11 01:52:48;;;;;;;4.93;2.10;;;9.70;54.70;;;;;;4935818;29;20040;-77
2021/03/11 01:55:15;;;;;;;2.83;1.75;;;9.70;54.80;;;;;;4919669;29;20036;-78
2021/03/11 01:57:41;;;;;;;4.45;2.10;;;9.70;54.90;;;;;;4935595;29;20095;-76
2021/03/11 02:00:10;;;;;;;4.03;2.00;;;9.70;54.80;;;;;;4936791;29;20520;-76
2021/03/11 02:02:36;;;;;;;5.90;1.92;;;9.70;54.80;;;;;;4919561;29;20049;-76
2021/03/11 02:05:05;;;;;;;3.97;1.80;;;9.70;54.50;;;;;;4936843;29;20488;-75
2021/03/11 02:07:31;;;;;;;5.97;2.13;;;9.70;54.50;;;;;;4918852;29;20059;-76
2021/03/11 02:09:57;;;;;;;5.10;2.00;;;9.70;54.60;;;;;;4919534;29;20367;-76
2021/03/11 02:12:38;;;;;;;7.32;2.50;;;9.80;54.40;;;;;;4919020;29;20469;-76
2021/03/11 02:15:08;;;;;;;4.63;1.63;;;9.80;54.00;;;;;;4919341;29;20385;-76
2021/03/11 02:18:01;;;;;;;5.07;2.00;;;9.80;54.30;;;;;;4918865;29;20417;-76
2021/03/11 02:20:42;;;;;;;4.78;2.20;;;9.70;55.00;;;;;;4935974;29;20035;-76
2021/03/11 02:23:49;;;;;;;4.57;2.00;;;9.80;54.40;;;;;;4936667;29;20063;-76
2021/03/11 02:26:32;;;;;;;3.30;2.05;;;9.80;54.20;;;;;;4918766;29;20039;-76
2021/03/11 02:29:10;;;;;;;5.40;2.42;;;9.80;54.40;;;;;;4936330;29;20044;-76
2021/03/11 02:31:39;;;;;;;7.00;2.47;;;9.80;53.90;;;;;;4935337;29;20068;-76
2021/03/11 02:34:29;;;;;;;5.85;2.40;;;9.80;54.40;;;;;;4936084;29;20036;-76
2021/03/11 02:36:58;;;;;;;6.45;2.75;;;9.70;54.70;;;;;;4918862;29;20032;-76
2021/03/11 02:39:27;;;;;;;6.13;3.13;;;9.80;55.00;;;;;;4918245;29;20040;-76
2021/03/11 02:41:55;;;;;;;5.68;3.00;;;9.70;55.30;;;;;;4918895;29;20138;-76
2021/03/11 02:44:22;;;;;;;7.28;3.30;;;9.70;55.20;;;;;;4918333;29;20382;-75
2021/03/11 02:46:50;;;;;;;6.90;3.55;;;9.80;55.30;;;;;;4918823;29;20112;-76
2021/03/11 02:49:19;;;;;;;8.52;3.38;;;9.80;55.30;;;;;;4934241;29;20040;-76
2021/03/11 02:51:45;;;;;;;7.88;3.50;;;9.80;55.00;;;;;;4935016;29;20047;-76
2021/03/11 02:54:12;;;;;;;9.18;4.25;;;9.70;55.20;;;;;;4935751;29;20042;-76
2021/03/11 02:56:40;;;;;;;11.63;4.45;;;9.80;54.80;;;;;;4918822;29;20035;-76
2021/03/11 02:59:07;;;;;;;7.47;4.10;;;9.80;54.90;;;;;;4918468;29;20055;-76
2021/03/11 03:01:34;;;;;;;9.20;4.57;;;9.80;54.60;;;;;;4918084;29;20099;-75
2021/03/11 03:04:01;;;;;;;9.13;4.55;;;9.80;54.80;;;;;;4935643;29;20389;-76
2021/03/11 03:06:29;;;;;;;11.57;4.68;;;9.80;54.60;;;;;;4935088;29;20036;-76
2021/03/11 03:08:55;;;;;;;10.40;4.60;;;9.80;54.50;;;;;;4935672;29;20032;-77
2021/03/11 03:11:23;;;;;;;11.50;5.15;;;9.80;54.60;;;;;;4950024;29;20047;-77
2021/03/11 03:13:50;;;;;;;9.55;4.95;;;9.80;54.50;;;;;;4937729;29;20039;-76
2021/03/11 03:16:17;;;;;;;12.00;5.25;;;9.80;54.60;;;;;;4937066;29;20036;-77
2021/03/11 03:18:44;;;;;;;12.02;4.93;;;9.80;54.60;;;;;;4954690;29;20039;-76
2021/03/11 03:21:11;;;;;;;11.90;4.72;;;9.90;54.70;;;;;;4937588;29;20043;-76
2021/03/11 03:23:39;;;;;;;11.90;5.35;;;9.90;54.90;;;;;;4954419;29;20058;-76
2021/03/11 03:26:05;;;;;;;8.55;4.70;;;9.90;54.70;;;;;;4937750;29;20125;-76
2021/03/11 03:28:31;;;;;;;9.35;4.55;;;9.90;55.10;;;;;;4953810;29;20488;-77
2021/03/11 03:30:57;;;;;;;10.80;5.10;;;9.90;54.80;;;;;;4937368;29;20078;-77
2021/03/11 03:33:22;;;;;;;11.65;5.50;;;10.00;54.80;;;;;;4954049;29;20059;-76
2021/03/11 03:35:48;;;;;;;11.57;5.60;;;9.90;54.70;;;;;;4953416;29;20388;-76
2021/03/11 03:38:14;;;;;;;12.23;5.50;;;9.90;54.80;;;;;;4937408;29;20039;-77
2021/03/11 03:40:41;;;;;;;16.00;5.72;;;9.90;54.80;;;;;;4937793;29;20133;-77
2021/03/11 03:43:18;;;;;;;14.73;5.43;;;9.90;55.00;;;;;;4955633;28;20540;-76
2021/03/11 03:45:53;;;;;;;11.48;5.30;;;10.00;55.10;;;;;;4941614;29;20046;-77
2021/03/11 03:48:26;;;;;;;11.30;4.93;;;10.00;55.00;;;;;;4958040;29;20091;-76
2021/03/11 03:50:53;;;;;;;9.13;4.78;;;10.00;55.30;;;;;;4958600;29;20044;-77
2021/03/11 03:53:22;;;;;;;12.23;4.90;;;10.00;55.50;;;;;;4940315;29;20049;-77
2021/03/11 03:55:57;;;;;;;10.35;5.13;;;10.00;55.60;;;;;;4941319;29;20122;-77
2021/03/11 03:58:25;;;;;;;10.43;4.68;;;10.00;56.10;;;;;;4940582;29;20046;-77
2021/03/11 04:00:51;;;;;;;11.90;5.53;;;10.10;56.10;;;;;;4940553;29;20050;-77
2021/03/11 04:03:20;;;;;;;10.30;4.40;;;10.10;56.00;;;;;;4940682;29;20048;-77
2021/03/11 04:05:47;;;;;;;9.60;4.95;;;10.10;56.20;;;;;;4941343;29;20130;-77
2021/03/11 04:08:13;;;;;;;9.98;4.57;;;10.10;56.00;;;;;;4941266;29;20032;-76
2021/03/11 04:10:42;;;;;;;10.38;4.88;;;10.00;56.20;;;;;;4948933;29;20051;-78
2021/03/11 04:13:08;;;;;;;11.55;4.30;;;10.10;56.10;;;;;;4956368;28;20469;-78
2021/03/11 04:15:34;;;;;;;11.43;4.72;;;10.10;56.30;;;;;;4940413;29;20039;-77
2021/03/11 04:18:01;;;;;;;10.75;4.50;;;10.10;56.40;;;;;;4953577;29;20047;-76
2021/03/11 04:20:27;;;;;;;8.27;4.15;;;10.10;56.50;;;;;;4937215;29;20370;-77
2021/03/11 04:22:55;;;;;;;11.75;4.47;;;10.10;56.60;;;;;;4938711;29;20039;-78
2021/03/11 04:25:21;;;;;;;7.55;3.88;;;10.10;56.20;;;;;;4950181;29;20039;-77
2021/03/11 04:27:46;;;;;;;8.40;5.07;;;10.20;56.20;;;;;;4957822;29;20488;-77
2021/03/11 04:30:13;;;;;;;11.38;4.45;;;10.20;56.10;;;;;;4956555;29;20039;-76
2021/03/11 04:32:39;;;;;;;13.30;4.95;;;10.20;56.10;;;;;;4955950;29;20046;-77
2021/03/11 04:35:09;;;;;;;10.40;4.03;;;10.20;56.00;;;;;;4958125;29;20035;-77
2021/03/11 04:37:39;;;;;;;11.13;4.88;;;10.20;56.20;;;;;;4956296;29;20066;-77
2021/03/11 04:40:06;;;;;;;11.10;4.93;;;10.20;56.00;;;;;;4958263;29;20381;-77
2021/03/11 04:42:36;;;;;;;12.32;4.45;;;10.30;56.10;;;;;;4956279;29;20046;-77
2021/03/11 04:45:04;;;;;;;13.35;4.55;;;10.30;55.80;;;;;;4956356;29;20046;-77
2021/03/11 04:47:30;;;;;;;9.68;4.07;;;10.30;55.80;;;;;;4955611;29;20126;-77
2021/03/11 04:49:58;;;;;;;10.63;4.25;;;10.30;55.90;;;;;;4956260;29;20043;-77
2021/03/11 04:52:25;;;;;;;8.23;3.67;;;10.30;55.80;;;;;;4955634;29;20089;-77
2021/03/11 04:54:51;;;;;;;10.43;4.00;;;10.40;56.20;;;;;;4956882;28;20031;-77
2021/03/11 04:57:16;;;;;;;12.27;5.18;;;10.40;55.90;;;;;;4956055;28;20046;-76
2021/03/11 04:59:42;;;;;;;7.18;3.83;;;10.40;55.70;;;;;;4955106;29;20051;-76
2021/03/11 05:02:10;;;;;;;10.57;4.32;;;10.40;55.70;;;;;;4955776;29;20408;-76
2021/03/11 05:04:36;;;;;;;9.57;4.03;;;10.40;55.90;;;;;;4956272;29;20035;-77
2021/03/11 05:07:02;;;;;;;9.02;3.85;;;10.40;55.80;;;;;;4956503;28;20040;-76
2021/03/11 05:09:28;;;;;;;9.85;4.07;;;10.40;55.70;;;;;;4955225;28;20130;-76
2021/03/11 05:11:53;;;;;;;7.63;3.70;;;10.50;56.10;;;;;;4957114;28;20035;-76
2021/03/11 05:14:19;;;;;;;8.77;3.47;;;10.40;56.20;;;;;;4955202;29;20043;-80
2021/03/11 05:16:44;;;;;;;11.18;4.22;;;10.40;57.10;;;;;;4956413;28;20038;-77
2021/03/11 05:19:10;;;;;;;9.68;3.78;;;10.40;56.60;;;;;;4955832;29;20113;-74
2021/03/11 05:21:36;;;;;;;6.13;3.15;;;10.40;56.70;;;;;;4955014;28;20044;-77
2021/03/11 05:24:02;;;;;;;9.43;4.32;;;10.40;56.90;;;;;;4955795;29;20067;-77
2021/03/11 05:26:28;;;;;;;10.43;3.42;;;10.40;57.90;;;;;;4955218;29;20035;-77
2021/03/11 05:28:54;;;;;;;9.27;3.40;;;10.40;58.40;;;;;;4956471;28;20090;-77
2021/03/11 05:31:20;;;;;;;7.90;3.08;;;10.40;58.60;;;;;;4956476;28;20067;-81
2021/03/11 05:33:45;;;;;;;10.27;3.40;;;10.40;58.60;;;;;;4955356;29;20075;-75
2021/03/11 05:36:11;;;;;;;6.03;3.08;;;10.40;58.50;;;;;;4956624;28;20035;-74
2021/03/11 05:38:37;;;;;;;4.80;2.78;;;10.40;58.90;;;;;;4954752;28;20488;-75
2021/03/11 05:41:03;;;;;;;8.38;3.05;;;10.40;59.60;;;;;;4955164;29;20039;-74
2021/03/11 05:43:29;;;;;;;4.90;2.50;;;10.40;60.00;;;;;;4954594;29;20393;-75
2021/03/11 05:45:56;;;;;;;6.72;2.80;;;10.40;60.10;;;;;;4954669;29;20035;-75
2021/03/11 05:48:25;;;;;;;5.78;2.58;;;10.40;60.30;;;;;;4955689;29;20065;-77
2021/03/11 05:50:51;;;;;;;4.95;2.30;;;10.40;60.30;;;;;;4956428;29;20034;-77
2021/03/11 05:53:18;;;;;;;4.38;2.45;;;10.40;60.10;;;;;;4956649;29;20031;-77
2021/03/11 05:55:44;;;;;;;5.85;2.60;;;10.40;60.20;;;;;;4954190;28;20036;-77
2021/03/11 05:58:10;;;;;;;7.03;2.17;;;10.40;60.20;;;;;;4952650;29;20039;-77
2021/03/11 06:00:36;;;;;;;8.10;2.50;;;10.40;60.40;;;;;;4955692;29;20043;-77
2021/03/11 06:03:03;;;;;;;7.72;2.30;;;10.40;60.40;;;;;;4943247;29;20036;-76
2021/03/11 06:05:31;;;;;;;6.63;2.28;;;10.40;60.30;;;;;;4935661;29;20044;-77
2021/03/11 06:07:58;;;;;;;3.83;2.10;;;10.50;60.60;;;;;;4935708;29;20035;-76
2021/03/11 06:10:24;;;;;;;4.70;2.00;;;10.50;60.70;;;;;;4954027;29;20047;-77
2021/03/11 06:12:51;;;;;;;5.43;2.35;;;10.50;60.70;;;;;;4954600;29;20093;-78
2021/03/11 06:15:17;;;;;;;2.33;1.70;;;10.50;60.90;;;;;;4955794;29;20123;-76
2021/03/11 06:17:43;;;;;;;4.60;2.03;;;10.50;61.00;;;;;;4953978;29;20118;-76
2021/03/11 06:20:10;;;;;;;5.15;1.92;;;10.50;61.10;;;;;;4954642;29;20035;-76
2021/03/11 06:22:36;;;;;;;3.47;1.77;;;10.60;61.10;;;;;;4951770;29;20043;-76
2021/03/11 06:25:04;;;;;;;4.20;1.65;;;10.60;61.10;;;;;;4948280;29;20508;-76
2021/03/11 06:27:29;;;;;;;2.88;1.70;;;10.60;61.40;;;;;;4947734;29;20053;-76
2021/03/11 06:29:57;;;;;;;2.30;1.40;;;10.60;61.30;;;;;;4950860;29;20128;-76
2021/03/11 06:32:23;;;;;;;2.80;1.33;;;10.60;61.30;;;;;;4935677;29;20031;-82
2021/03/11 06:34:49;;;;;;;3.80;1.75;;;10.60;61.30;;;;;;4935244;29;20078;-76
2021/03/11 06:37:16;;;;;;;2.40;1.63;;;10.70;61.50;;;;;;4934928;29;20114;-76
2021/03/11 06:39:43;;;;;;;3.80;1.42;;;10.70;61.50;;;;;;4935523;29;20040;-76
2021/03/11 06:42:10;;;;;;;4.15;1.50;;;10.70;61.60;;;;;;4936323;29;20063;-76
2021/03/11 06:44:44;;;;;;;4.20;1.60;;;10.70;61.60;;;;;;4934557;29;20119;-76
2021/03/11 06:47:15;;;;;;;2.55;1.60;;;10.80;61.60;;;;;;4949909;29;20050;-76
2021/03/11 06:49:58;;;;;;;2.50;1.70;;;10.80;61.70;;;;;;4969722;28;20039;-76
2021/03/11 06:52:25;;;;;;;6.25;1.50;;;10.80;61.90;;;;;;4953684;29;20309;-78
2021/03/11 06:54:59;;;;;;;2.88;1.10;;;10.80;61.60;;;;;;4953916;29;20138;-76
2021/03/11 06:57:31;;;;;;;3.13;1.20;;;10.90;61.70;;;;;;4954680;29;20031;-77
2021/03/11 07:00:04;;;;;;;2.63;1.27;;;10.90;61.70;;;;;;4953832;29;20058;-76
2021/03/11 07:02:29;;;;;;;3.45;1.45;;;10.90;61.50;;;;;;4954192;28;20047;-76
2021/03/11 07:04:56;;;;;;;8.60;1.60;;;11.00;61.60;;;;;;4954878;29;20043;-76
2021/03/11 07:07:23;;;;;;;4.68;1.45;;;11.00;61.30;;;;;;4955165;29;20038;-76
2021/03/11 07:09:52;;;;;;;2.85;1.52;;;11.10;61.30;;;;;;4954964;28;20054;-76
2021/03/11 07:12:18;;;;;;;5.32;1.65;;;11.00;61.20;;;;;;4953699;29;20127;-77
2021/03/11 07:14:48;;;;;;;6.32;1.77;;;11.10;61.20;;;;;;4969354;28;20067;-76
2021/03/11 07:17:21;;;;;;;3.90;1.38;;;11.10;61.40;;;;;;4953405;29;20469;-77
2021/03/11 07:20:05;;;;;;;5.30;1.50;;;11.20;61.30;;;;;;4953290;29;20039;-76
2021/03/11 07:22:31;;;;;;;3.08;1.20;;;11.20;61.40;;;;;;4953413;29;20043;-76
2021/03/11 07:24:57;;;;;;;4.00;1.50;;;11.20;61.20;;;;;;4953578;29;20041;-77
2021/03/11 07:27:22;;;;;;;3.92;1.58;;;11.20;61.00;;;;;;4953752;29;20480;-76
2021/03/11 07:30:15;;;;;;;1.80;1.10;;;11.30;61.00;;;;;;4952826;29;20094;-75
2021/03/11 07:32:40;;;;;;;2.20;1.40;;;11.30;61.00;;;;;;4952140;28;20051;-77
2021/03/11 07:35:06;;;;;;;2.13;1.25;;;11.30;61.10;;;;;;4955007;29;20051;-76
2021/03/11 07:37:33;;;;;;;5.93;1.65;;;11.30;61.10;;;;;;4968910;28;20042;-76
2021/03/11 07:40:00;;;;;;;2.95;1.55;;;11.30;61.40;;;;;;4954489;29;20094;-76
2021/03/11 07:42:27;;;;;;;5.32;1.55;;;11.40;61.20;;;;;;4952745;29;20050;-76
2021/03/11 07:44:53;;;;;;;2.95;1.20;;;11.40;61.40;;;;;;4954474;29;20140;-77
2021/03/11 07:47:21;;;;;;;6.13;1.70;;;11.40;61.50;;;;;;4954445;29;20039;-74
2021/03/11 07:49:46;;;;;;;3.72;1.40;;;11.40;61.70;;;;;;4954209;28;20039;-75
2021/03/11 07:52:12;;;;;;;2.67;1.40;;;11.40;61.80;;;;;;4953277;28;20098;-75
2021/03/11 07:54:38;;;;;;;2.55;1.30;;;11.50;62.00;;;;;;4952787;29;20130;-75
2021/03/11 07:57:05;;;;;;;2.33;1.30;;;11.50;62.20;;;;;;4953123;28;20051;-75
2021/03/11 07:59:31;;;;;;;5.68;1.45;;;11.50;62.40;;;;;;4952404;28;20044;-74
2021/03/11 08:02:11;;;;;;;5.13;1.40;;;11.50;62.50;;;;;;4954422;28;20106;-75
2021/03/11 08:04:41;;;;;;;2.25;1.30;;;11.50;62.60;;;;;;4952635;29;20131;-75
2021/03/11 08:07:26;;;;;;;2.95;1.40;;;11.50;62.50;;;;;;4953049;29;20042;-75
2021/03/11 08:09:57;;;;;;;2.53;1.33;;;11.50;62.70;;;;;;4953035;29;20110;-74
2021/03/11 08:12:26;;;;;;;3.50;1.30;;;11.60;62.60;;;;;;4954179;28;20036;-74
2021/03/11 08:14:53;;;;;;;4.35;1.10;;;11.60;62.80;;;;;;4952581;29;20031;-74
2021/03/11 08:17:34;;;;;;;1.90;1.13;;;11.60;62.80;;;;;;4954097;28;20036;-74
2021/03/11 08:20:00;;;;;;;2.70;1.27;;;11.60;63.00;;;;;;4952504;29;20051;-74
2021/03/11 08:22:51;;;;;;;3.08;1.42;;;11.60;62.90;;;;;;4951949;29;20468;-74
2021/03/11 08:25:38;;;;;;;1.80;1.30;;;11.60;63.20;;;;;;4952645;29;20078;-75
2021/03/11 08:28:29;;;;;;;4.72;1.40;;;11.60;63.30;;;;;;4953940;28;20043;-75
2021/03/11 08:31:01;;;;;;;5.00;1.23;;;11.60;63.30;;;;;;4955665;28;20043;-75
2021/03/11 08:33:27;;;;;;;2.80;1.17;;;11.60;63.20;;;;;;4954490;29;20468;-75
2021/03/11 08:35:55;;;;;;;1.65;1.25;;;11.60;63.30;;;;;;4958243;28;20089;-78
2021/03/11 08:38:21;;;;;;;3.10;1.38;;;11.60;63.00;;;;;;4958021;29;20053;-75
2021/03/11 08:41:03;;;;;;;5.53;1.38;;;11.60;63.10;;;;;;4955635;29;20544;-75
2021/03/11 08:43:37;;;;;;;2.40;1.13;;;11.70;63.10;;;;;;4957181;28;20055;-79
2021/03/11 08:46:08;;;;;;;2.90;1.27;;;11.70;63.00;;;;;;4957698;28;20035;-76
2021/03/11 08:48:52;;;;;;;2.10;1.17;;;11.70;63.00;;;;;;4957407;29;20043;-76
2021/03/11 08:51:18;;;;;;;4.82;1.38;;;11.80;63.00;;;;;;4956341;29;20073;-76
2021/03/11 08:53:47;;;;;;;2.60;1.23;;;11.80;63.00;;;;;;4955334;29;20063;-76
2021/03/11 08:56:16;;;;;;;2.10;1.20;;;11.90;63.80;;;;;;4955783;28;20032;-76
2021/03/11 08:58:56;;;;;;;2.15;0.82;;;11.90;64.80;;;;;;4955429;28;20031;-75
2021/03/11 09:01:43;;;;;;;2.22;0.80;;;11.90;66.40;;;;;;4956023;29;20031;-75
2021/03/11 09:04:21;;;;;;;3.67;0.98;;;11.90;68.50;;;;;;4957072;28;20036;-76
2021/03/11 09:06:50;;;;;;;1.90;1.13;;;12.00;68.80;;;;;;4954400;29;20031;-76
2021/03/11 09:09:16;;;;;;;3.20;0.80;;;12.00;69.20;;;;;;4954290;29;20045;-77
2021/03/11 09:11:55;;;;;;;1.25;0.77;;;11.90;68.90;;;;;;4955261;29;20130;-76
2021/03/11 09:14:25;;;;;;;1.92;0.70;;;12.00;68.90;;;;;;4955571;29;20477;-76
2021/03/11 09:16:51;;;;;;;2.08;0.85;;;12.00;68.40;;;;;;4955826;29;20051;-77
2021/03/11 09:19:17;;;;;;;4.68;1.73;;;12.00;68.50;;;;;;4955589;28;20039;-76
2021/03/11 09:21:44;;;;;;;5.20;1.27;;;12.00;69.20;;;;;;4955174;28;20087;-76
2021/03/11 09:24:20;;;;;;;3.30;1.02;;;12.00;69.60;;;;;;4957334;28;20043;-78
2021/03/11 09:26:46;;;;;;;1.63;1.00;;;12.10;69.30;;;;;;4954261;29;20027;-75
2021/03/11 09:29:13;;;;;;;1.58;1.00;;;12.20;67.70;;;;;;4954758;28;20373;-76
2021/03/11 09:31:40;;;;;;;1.50;1.02;;;12.30;67.80;;;;;;4955096;29;20102;-76
2021/03/11 09:34:06;;;;;;;3.92;1.17;;;12.40;67.80;;;;;;4956976;28;20032;-76
2021/03/11 09:36:32;;;;;;;1.60;0.80;;;12.30;67.80;;;;;;4956654;28;20035;-77
2021/03/11 09:39:06;;;;;;;3.03;0.77;;;12.30;67.30;;;;;;4955520;28;20055;-76
2021/03/11 09:41:33;;;;;;;3.97;1.02;;;12.40;67.70;;;;;;4955708;28;20043;-77
2021/03/11 09:44:06;;;;;;;2.22;0.75;;;12.40;67.50;;;;;;4956910;28;20031;-77
2021/03/11 09:46:32;;;;;;;4.35;0.90;;;12.40;68.30;;;;;;4955098;29;20031;-81
2021/03/11 09:48:59;;;;;;;5.53;0.90;;;12.40;68.40;;;;;;4955315;29;20491;-77
2021/03/11 09:51:29;;;;;;;1.55;0.93;;;12.40;68.70;;;;;;4956243;29;20035;-74
2021/03/11 09:54:04;;;;;;;2.80;0.90;;;12.30;69.50;;;;;;4954319;28;20480;-75
2021/03/11 09:56:31;;;;;;;2.40;1.00;;;12.20;70.70;;;;;;4956065;29;20035;-75
2021/03/11 09:59:01;;;;;;;3.40;0.88;;;12.00;71.40;;;;;;4954099;28;20058;-75
2021/03/11 10:01:31;;;;;;;1.35;0.90;;;11.90;72.40;;;;;;4954946;29;20070;-77
2021/03/11 10:03:58;;;;;;;1.38;0.70;;;11.90;73.40;;;;;;4955004;29;20031;-74
2021/03/11 10:06:25;;;;;;;2.38;0.75;;;11.80;74.20;;;;;;4938301;29;20067;-75
2021/03/11 10:08:55;;;;;;;3.53;0.80;;;11.70;75.90;;;;;;4954026;29;20047;-75
2021/03/11 10:11:29;;;;;;;3.55;0.88;;;11.50;77.60;;;;;;4954330;29;20481;-74
2021/03/11 10:14:01;;;;;;;1.88;1.02;;;11.50;79.20;;;;;;4955065;28;20094;-75
2021/03/11 10:16:36;;;;;;;3.08;1.38;;;11.40;80.40;;;;;;4954293;29;20082;-75
2021/03/11 10:19:19;;;;;;;0.88;0.68;;;11.30;81.40;;;;;;4955679;29;20043;-76
2021/03/11 10:21:53;;;;;;;1.10;0.63;;;11.20;82.90;;;;;;4955337;29;20035;-76
2021/03/11 10:24:50;;;;;;;1.40;0.60;;;11.10;83.60;;;;;;4954708;29;20039;-75
2021/03/11 10:27:26;;;;;;;1.67;0.60;;;11.10;84.30;;;;;;4955663;29;20036;-75
2021/03/11 10:30:12;;;;;;;4.18;0.55;;;11.00;84.50;;;;;;4953766;29;20031;-75
2021/03/11 10:32:43;;;;;;;1.17;0.75;;;11.00;85.70;;;;;;4953824;29;20039;-76
2021/03/11 10:35:23;;;;;;;0.75;0.50;;;10.90;86.10;;;;;;4952224;29;20066;-75
2021/03/11 10:37:48;;;;;;;1.55;0.50;;;10.90;86.00;;;;;;4954710;28;20158;-77
2021/03/11 10:40:24;;;;;;;1.95;0.63;;;10.80;87.10;;;;;;4954139;28;20130;-75
2021/03/11 10:42:55;;;;;;;2.75;0.65;;;10.90;87.70;;;;;;4953547;29;20489;-74
2021/03/11 10:45:26;;;;;;;3.30;0.87;;;10.90;87.70;;;;;;4953658;28;20035;-74
2021/03/11 10:48:03;;;;;;;2.72;0.93;;;10.80;88.40;;;;;;4952801;29;20293;-74
2021/03/11 10:50:31;;;;;;;2.42;0.95;;;10.80;88.80;;;;;;4953523;29;20408;-74
2021/03/11 10:52:57;;;;;;;1.20;0.85;;;10.80;88.80;;;;;;4953659;28;20493;-73
2021/03/11 10:55:32;;;;;;;1.17;0.77;;;10.80;88.70;;;;;;4953658;29;20039;-77
2021/03/11 10:57:58;;;;;;;1.63;0.60;;;10.90;88.90;;;;;;4954193;29;20125;-76
2021/03/11 11:00:27;;;;;;;1.08;0.90;;;10.80;88.90;;;;;;4952854;28;20524;-76
2021/03/11 11:02:55;;;;;;;4.00;0.90;;;10.80;89.10;;;;;;4954189;29;20035;-76
2021/03/11 11:05:21;;;;;;;3.97;1.02;;;10.80;89.00;;;;;;4953416;28;20380;-76
2021/03/11 11:07:47;;;;;;;2.53;0.85;;;10.90;89.80;;;;;;4954519;28;20040;-75
2021/03/11 11:10:15;;;;;;;3.13;1.13;;;10.90;89.30;;;;;;4954731;28;20559;-77
2021/03/11 11:12:41;;;;;;;1.33;0.85;;;10.90;89.90;;;;;;4953232;29;20031;-77
2021/03/11 11:15:07;;;;;;;4.47;1.10;;;10.90;89.80;;;;;;4953903;29;20031;-76
2021/03/11 11:17:32;;;;;;;4.47;1.75;;;11.00;89.70;;;;;;4953316;28;20473;-77
2021/03/11 11:19:58;;;;;;;2.63;0.98;;;11.00;89.70;;;;;;4952876;28;20035;-77
2021/03/11 11:22:25;;;;;;;4.05;1.13;;;11.00;89.70;;;;;;4953228;29;20046;-76
2021/03/11 11:24:51;;;;;;;2.25;1.00;;;11.10;89.50;;;;;;4952846;28;20472;-75
2021/03/11 11:27:16;;;;;;;1.00;0.70;;;11.10;89.60;;;;;;4954141;29;20050;-73
2021/03/11 11:29:42;;;;;;;2.13;0.90;;;11.10;89.50;;;;;;4952296;29;20036;-75
2021/03/11 11:32:08;;;;;;;2.10;0.90;;;11.20;89.40;;;;;;4954363;29;20043;-74
2021/03/11 11:34:34;;;;;;;4.72;1.15;;;11.20;89.90;;;;;;4954327;29;20039;-74
2021/03/11 11:37:00;;;;;;;3.45;0.90;;;11.30;89.80;;;;;;4952796;28;20101;-74
2021/03/11 11:39:25;;;;;;;1.95;0.80;;;11.40;89.00;;;;;;4954388;29;20126;-74
2021/03/11 11:41:51;;;;;;;2.85;1.00;;;11.40;89.10;;;;;;4953923;29;20036;-75
2021/03/11 11:44:18;;;;;;;1.58;1.00;;;11.40;89.50;;;;;;4953151;28;20465;-75
2021/03/11 11:46:44;;;;;;;1.00;0.90;;;11.30;89.30;;;;;;4953532;29;20508;-76
2021/03/11 11:49:10;;;;;;;3.25;1.00;;;11.30;89.60;;;;;;4953226;29;20039;-75
2021/03/11 11:51:36;;;;;;;2.85;0.88;;;11.30;89.30;;;;;;4953233;28;20051;-75
2021/03/11 11:54:02;;;;;;;1.13;0.82;;;11.30;89.40;;;;;;4953883;29;20563;-75
2021/03/11 11:56:28;;;;;;;1.30;0.90;;;11.40;89.30;;;;;;4955021;29;20035;-75
2021/03/11 11:58:54;;;;;;;2.20;0.90;;;11.40;88.30;;;;;;4951994;29;20102;-75
2021/03/11 12:01:20;;;;;;;0.95;0.80;;;11.50;87.90;;;;;;4953932;29;20042;-74
2021/03/11 12:03:46;;;;;;;2.70;0.73;;;11.50;87.70;;;;;;4952441;28;20031;-74
2021/03/11 12:06:13;;;;;;;2.10;0.73;;;11.60;87.80;;;;;;4955786;29;20042;-75
2021/03/11 12:08:39;;;;;;;2.47;1.10;;;11.70;87.40;;;;;;4957705;28;20035;-82
2021/03/11 12:11:05;;;;;;;3.15;0.80;;;11.80;87.10;;;;;;4955852;29;20047;-75
2021/03/11 12:13:32;;;;;;;1.23;0.85;;;12.00;85.80;;;;;;4956587;29;20042;-75
2021/03/11 12:15:58;;;;;;;2.95;1.10;;;12.20;85.30;;;;;;4952520;28;20093;-76
2021/03/11 12:18:23;;;;;;;5.00;1.00;;;12.30;85.20;;;;;;4955926;29;20488;-75
2021/03/11 12:20:49;;;;;;;1.27;0.80;;;12.40;84.10;;;;;;4956268;28;20154;-77
2021/03/11 12:23:15;;;;;;;1.48;0.90;;;12.70;82.70;;;;;;4957171;29;20085;-76
2021/03/11 12:25:41;;;;;;;1.52;0.82;;;12.80;81.60;;;;;;4956469;29;20039;-77
2021/03/11 12:28:07;;;;;;;2.08;0.75;;;12.60;82.70;;;;;;4956918;29;20600;-77
2021/03/11 12:30:33;;;;;;;2.25;0.70;;;12.50;82.50;;;;;;4956903;29;20134;-76
2021/03/11 12:32:59;;;;;;;1.65;0.75;;;12.40;83.40;;;;;;4956452;28;20130;-77
2021/03/11 12:35:25;;;;;;;2.28;0.70;;;12.30;83.10;;;;;;4957603;28;20023;-75
2021/03/11 12:37:52;;;;;;;3.05;0.60;;;12.30;83.30;;;;;;4956933;28;20062;-75
2021/03/11 12:40:19;;;;;;;1.80;0.70;;;12.30;83.10;;;;;;4956961;28;20122;-76
2021/03/11 12:42:47;;;;;;;1.52;0.95;;;12.30;83.30;;;;;;4957284;29;20473;-76
2021/03/11 12:45:14;;;;;;;1.83;0.70;;;12.30;83.70;;;;;;4957069;29;20050;-75
2021/03/11 12:47:39;;;;;;;1.70;0.80;;;12.20;84.00;;;;;;4956571;28;20586;-75
2021/03/11 12:50:06;;;;;;;2.75;0.82;;;12.30;84.20;;;;;;4957208;28;20118;-75
2021/03/11 12:52:32;;;;;;;1.95;0.50;;;12.20;85.80;;;;;;4957148;29;20031;-75
2021/03/11 12:54:58;;;;;;;1.58;0.60;;;12.10;85.80;;;;;;4956758;29;20794;-75